sensor_id;sensor_type;location;lat;lon;timestamp;temperature;humidity
6724;DHT22;3399;52.530;13.304;2023-11-21T00:00:05;8.40;99.90
6724;DHT22;3399;52.530;13.304;2023-11-21T00:02:35;8.30;99.90
6724;DHT22;3399;52.530;13.304;2023-11-21T00:05:01;8.20;99.90
6724;DHT22;3399;52.530;13.304;2023-11-21T00:07:28;8.30;99.90
6724;DHT22;3399;52.530;13.304;2023-11-21T00:09:54;8.30;99.90
6724;DHT22;3399;52.530;13.304;2023-11-21T00:12:21;8.20;99.90
6724;DHT22;3399;52.530;13.304;2023-11-21T00:14:46;8.20;99.90
6724;DHT22;3399;52.530;13.304;2023-11-21T00:17:12;8.20;99.90
6724;DHT22;3399;52.530;13.304;2023-11-21T00:19:37;8.30;99.90
6724;DHT22;3399;52.530;13.304;2023-11-21T00:22:03;8.40;99.90
6724;DHT22;3399;52.530;13.304;2023-11-21T00:24:29;8.20;99.90
6724;DHT22;3399;52.530;13.304;2023-11-21T00:26:54;8.00;99.90
6724;DHT22;3399;52.530;13.304;2023-11-21T00:29:20;8.10;99.90
6724;DHT22;3399;52.530;13.304;2023-11-21T00:31:45;8.20;99.90
6724;DHT22;3399;52.530;13.304;2023-11-21T00:34:14;8.00;99.90
6724;DHT22;3399;52.530;13.304;2023-11-21T00:36:40;8.00;99.90
6724;DHT22;3399;52.530;13.304;2023-11-21T00:39:06;7.90;99.90
6724;DHT22;3399;52.530;13.304;2023-11-21T00:41:32;8.00;99.90
6724;DHT22;3399;52.530;13.304;2023-11-21T00:43:57;8.00;99.90
6724;DHT22;3399;52.530;13.304;2023-11-21T00:46:25;8.10;99.90
6724;DHT22;3399;52.530;13.304;2023-11-21T00:48:52;8.00;99.90
6724;DHT22;3399;52.530;13.304;2023-11-21T00:51:19;7.90;99.90
6724;DHT22;3399;52.530;13.304;2023-11-21T00:53:45;7.80;99.90
6724;DHT22;3399;52.530;13.304;2023-11-21T00:56:10;7.70;99.90
6724;DHT22;3399;52.530;13.304;2023-11-21T00:58:36;7.70;99.90
6724;DHT22;3399;52.530;13.304;2023-11-21T01:01:01;7.80;99.90
6724;DHT22;3399;52.530;13.304;2023-11-21T01:03:28;7.80;99.90
6724;DHT22;3399;52.530;13.304;2023-11-21T01:05:54;7.80;99.90
6724;DHT22;3399;52.530;13.304;2023-11-21T01:08:19;7.70;99.90
6724;DHT22;3399;52.530;13.304;2023-11-21T01:10:45;7.70;99.90
6724;DHT22;3399;52.530;13.304;2023-11-21T01:13:11;7.70;99.90
6724;DHT22;3399;52.530;13.304;2023-11-21T01:15:37;7.70;99.90
6724;DHT22;3399;52.530;13.304;2023-11-21T01:18:03;7.60;99.90
6724;DHT22;3399;52.530;13.304;2023-11-21T01:20:29;7.90;99.90
6724;DHT22;3399;52.530;13.304;2023-11-21T01:22:54;7.90;99.90
6724;DHT22;3399;52.530;13.304;2023-11-21T01:25:21;7.80;99.90
6724;DHT22;3399;52.530;13.304;2023-11-21T01:27:46;7.90;99.90
6724;DHT22;3399;52.530;13.304;2023-11-21T01:30:12;7.70;99.90
6724;DHT22;3399;52.530;13.304;2023-11-21T01:32:38;7.70;99.90
6724;DHT22;3399;52.530;13.304;2023-11-21T01:35:05;7.80;99.90
6724;DHT22;3399;52.530;13.304;2023-11-21T01:37:31;7.70;99.90
6724;DHT22;3399;52.530;13.304;2023-11-21T01:39:58;7.60;99.90
6724;DHT22;3399;52.530;13.304;2023-11-21T01:42:24;7.50;99.90
6724;DHT22;3399;52.530;13.304;2023-11-21T01:44:50;7.50;99.90
6724;DHT22;3399;52.530;13.304;2023-11-21T01:47:16;7.50;99.90
6724;DHT22;3399;52.530;13.304;2023-11-21T01:49:44;7.40;99.90
6724;DHT22;3399;52.530;13.304;2023-11-21T01:52:10;7.40;99.90
6724;DHT22;3399;52.530;13.304;2023-11-21T01:54:37;7.40;99.90
6724;DHT22;3399;52.530;13.304;2023-11-21T01:57:04;7.40;99.90
6724;DHT22;3399;52.530;13.304;2023-11-21T01:59:36;7.30;99.90
6724;DHT22;3399;52.530;13.304;2023-11-21T02:02:05;7.20;99.90
6724;DHT22;3399;52.530;13.304;2023-11-21T02:04:32;7.20;99.90
6724;DHT22;3399;52.530;13.304;2023-11-21T02:06:59;7.30;99.90
6724;DHT22;3399;52.530;13.304;2023-11-21T02:09:27;7.30;99.90
6724;DHT22;3399;52.530;13.304;2023-11-21T02:11:54;7.30;99.90
6724;DHT22;3399;52.530;13.304;2023-11-21T02:14:21;7.30;99.90
6724;DHT22;3399;52.530;13.304;2023-11-21T02:16:51;7.30;99.90
6724;DHT22;3399;52.530;13.304;2023-11-21T02:19:21;7.30;99.90
6724;DHT22;3399;52.530;13.304;2023-11-21T02:21:49;7.20;99.90
6724;DHT22;3399;52.530;13.304;2023-11-21T02:24:15;7.30;99.90
6724;DHT22;3399;52.530;13.304;2023-11-21T02:26:41;7.10;99.90
6724;DHT22;3399;52.530;13.304;2023-11-21T02:29:06;7.10;99.90
6724;DHT22;3399;52.530;13.304;2023-11-21T02:31:36;7.20;99.90
6724;DHT22;3399;52.530;13.304;2023-11-21T02:34:02;7.30;99.90
6724;DHT22;3399;52.530;13.304;2023-11-21T02:36:28;7.30;99.90
6724;DHT22;3399;52.530;13.304;2023-11-21T02:38:55;7.40;99.90
6724;DHT22;3399;52.530;13.304;2023-11-21T02:41:21;7.20;99.90
6724;DHT22;3399;52.530;13.304;2023-11-21T02:43:46;7.20;99.90
6724;DHT22;3399;52.530;13.304;2023-11-21T02:46:12;7.30;99.90
6724;DHT22;3399;52.530;13.304;2023-11-21T02:48:37;7.40;99.90
6724;DHT22;3399;52.530;13.304;2023-11-21T02:51:03;7.30;99.90
6724;DHT22;3399;52.530;13.304;2023-11-21T02:53:28;7.10;99.90
6724;DHT22;3399;52.530;13.304;2023-11-21T02:55:53;7.10;99.90
6724;DHT22;3399;52.530;13.304;2023-11-21T02:58:19;7.00;99.90
6724;DHT22;3399;52.530;13.304;2023-11-21T03:00:44;7.10;99.90
6724;DHT22;3399;52.530;13.304;2023-11-21T03:03:10;7.10;99.90
6724;DHT22;3399;52.530;13.304;2023-11-21T03:05:36;7.20;99.90
6724;DHT22;3399;52.530;13.304;2023-11-21T03:08:02;7.10;99.90
6724;DHT22;3399;52.530;13.304;2023-11-21T03:10:28;7.20;99.90
6724;DHT22;3399;52.530;13.304;2023-11-21T03:12:53;7.20;99.90
6724;DHT22;3399;52.530;13.304;2023-11-21T03:15:19;7.20;99.90
6724;DHT22;3399;52.530;13.304;2023-11-21T03:17:44;7.10;99.90
6724;DHT22;3399;52.530;13.304;2023-11-21T03:20:10;7.20;99.90
6724;DHT22;3399;52.530;13.304;2023-11-21T03:22:39;7.10;99.90
6724;DHT22;3399;52.530;13.304;2023-11-21T03:25:05;7.10;99.90
6724;DHT22;3399;52.530;13.304;2023-11-21T03:27:30;7.10;99.90
6724;DHT22;3399;52.530;13.304;2023-11-21T03:29:56;6.90;99.90
6724;DHT22;3399;52.530;13.304;2023-11-21T03:32:21;6.90;99.90
6724;DHT22;3399;52.530;13.304;2023-11-21T03:34:58;7.00;99.90
6724;DHT22;3399;52.530;13.304;2023-11-21T03:37:24;6.90;99.90
6724;DHT22;3399;52.530;13.304;2023-11-21T03:39:50;6.90;99.90
6724;DHT22;3399;52.530;13.304;2023-11-21T03:42:16;6.80;99.90
6724;DHT22;3399;52.530;13.304;2023-11-21T03:44:42;6.80;99.90
6724;DHT22;3399;52.530;13.304;2023-11-21T03:47:07;6.80;99.90
6724;DHT22;3399;52.530;13.304;2023-11-21T03:49:33;6.80;99.90
6724;DHT22;3399;52.530;13.304;2023-11-21T03:51:59;6.70;99.90
6724;DHT22;3399;52.530;13.304;2023-11-21T03:54:24;6.60;99.90
6724;DHT22;3399;52.530;13.304;2023-11-21T03:56:50;6.60;99.90
6724;DHT22;3399;52.530;13.304;2023-11-21T03:59:15;6.60;99.90
6724;DHT22;3399;52.530;13.304;2023-11-21T04:01:41;6.70;99.90
6724;DHT22;3399;52.530;13.304;2023-11-21T04:04:06;6.70;99.90
6724;DHT22;3399;52.530;13.304;2023-11-21T04:06:32;6.80;99.90
6724;DHT22;3399;52.530;13.304;2023-11-21T04:08:58;6.70;99.90
6724;DHT22;3399;52.530;13.304;2023-11-21T04:11:24;6.70;99.90
6724;DHT22;3399;52.530;13.304;2023-11-21T04:13:50;6.70;99.90
6724;DHT22;3399;52.530;13.304;2023-11-21T04:16:15;6.60;99.90
6724;DHT22;3399;52.530;13.304;2023-11-21T04:18:41;6.70;99.90
6724;DHT22;3399;52.530;13.304;2023-11-21T04:21:07;6.70;99.90
6724;DHT22;3399;52.530;13.304;2023-11-21T04:23:33;6.60;99.90
6724;DHT22;3399;52.530;13.304;2023-11-21T04:25:58;6.70;99.90
6724;DHT22;3399;52.530;13.304;2023-11-21T04:28:24;6.70;99.90
6724;DHT22;3399;52.530;13.304;2023-11-21T04:30:50;6.70;99.90
6724;DHT22;3399;52.530;13.304;2023-11-21T04:33:16;6.70;99.90
6724;DHT22;3399;52.530;13.304;2023-11-21T04:35:41;6.70;99.90
6724;DHT22;3399;52.530;13.304;2023-11-21T04:38:07;6.70;99.90
6724;DHT22;3399;52.530;13.304;2023-11-21T04:40:33;6.80;99.90
6724;DHT22;3399;52.530;13.304;2023-11-21T04:42:58;6.80;99.90
6724;DHT22;3399;52.530;13.304;2023-11-21T04:45:24;6.70;99.90
6724;DHT22;3399;52.530;13.304;2023-11-21T04:47:50;6.50;99.90
6724;DHT22;3399;52.530;13.304;2023-11-21T04:50:16;6.40;99.90
6724;DHT22;3399;52.530;13.304;2023-11-21T04:52:42;6.50;99.90
6724;DHT22;3399;52.530;13.304;2023-11-21T04:55:07;6.50;99.90
6724;DHT22;3399;52.530;13.304;2023-11-21T04:57:36;6.40;99.90
6724;DHT22;3399;52.530;13.304;2023-11-21T05:00:02;6.50;99.90
6724;DHT22;3399;52.530;13.304;2023-11-21T05:02:31;6.40;99.90
6724;DHT22;3399;52.530;13.304;2023-11-21T05:04:59;6.40;99.90
6724;DHT22;3399;52.530;13.304;2023-11-21T05:07:25;6.30;99.90
6724;DHT22;3399;52.530;13.304;2023-11-21T05:09:54;6.40;99.90
6724;DHT22;3399;52.530;13.304;2023-11-21T05:12:21;6.50;99.90
6724;DHT22;3399;52.530;13.304;2023-11-21T05:14:47;6.40;99.90
6724;DHT22;3399;52.530;13.304;2023-11-21T05:17:12;6.40;99.90
6724;DHT22;3399;52.530;13.304;2023-11-21T05:19:38;6.30;99.90
6724;DHT22;3399;52.530;13.304;2023-11-21T05:22:06;6.40;99.90
6724;DHT22;3399;52.530;13.304;2023-11-21T05:24:34;6.30;99.90
6724;DHT22;3399;52.530;13.304;2023-11-21T05:27:00;6.30;99.90
6724;DHT22;3399;52.530;13.304;2023-11-21T05:29:25;6.30;99.90
6724;DHT22;3399;52.530;13.304;2023-11-21T05:31:51;6.20;99.90
6724;DHT22;3399;52.530;13.304;2023-11-21T05:34:18;6.30;99.90
6724;DHT22;3399;52.530;13.304;2023-11-21T05:36:44;6.10;99.90
6724;DHT22;3399;52.530;13.304;2023-11-21T05:39:11;6.10;99.90
6724;DHT22;3399;52.530;13.304;2023-11-21T05:41:36;6.10;99.90
6724;DHT22;3399;52.530;13.304;2023-11-21T05:44:02;6.10;99.90
6724;DHT22;3399;52.530;13.304;2023-11-21T05:46:27;6.20;99.90
6724;DHT22;3399;52.530;13.304;2023-11-21T05:48:53;6.20;99.90
6724;DHT22;3399;52.530;13.304;2023-11-21T05:51:19;6.20;99.90
6724;DHT22;3399;52.530;13.304;2023-11-21T05:53:44;6.20;99.90
6724;DHT22;3399;52.530;13.304;2023-11-21T05:56:10;6.10;99.90
6724;DHT22;3399;52.530;13.304;2023-11-21T05:58:35;6.20;99.90
6724;DHT22;3399;52.530;13.304;2023-11-21T06:01:01;6.10;99.90
6724;DHT22;3399;52.530;13.304;2023-11-21T06:03:28;6.20;99.90
6724;DHT22;3399;52.530;13.304;2023-11-21T06:05:53;6.10;99.90
6724;DHT22;3399;52.530;13.304;2023-11-21T06:08:19;6.00;99.90
6724;DHT22;3399;52.530;13.304;2023-11-21T06:10:44;6.00;99.90
6724;DHT22;3399;52.530;13.304;2023-11-21T06:13:11;6.10;99.90
6724;DHT22;3399;52.530;13.304;2023-11-21T06:15:36;6.00;99.90
6724;DHT22;3399;52.530;13.304;2023-11-21T06:18:02;6.00;99.90
6724;DHT22;3399;52.530;13.304;2023-11-21T06:20:27;6.00;99.90
6724;DHT22;3399;52.530;13.304;2023-11-21T06:22:53;5.90;99.90
6724;DHT22;3399;52.530;13.304;2023-11-21T06:25:19;5.90;99.90
6724;DHT22;3399;52.530;13.304;2023-11-21T06:27:46;5.90;99.90
6724;DHT22;3399;52.530;13.304;2023-11-21T06:30:16;5.90;99.90
6724;DHT22;3399;52.530;13.304;2023-11-21T06:32:42;6.00;99.90
6724;DHT22;3399;52.530;13.304;2023-11-21T06:35:11;5.90;99.90
6724;DHT22;3399;52.530;13.304;2023-11-21T06:37:37;6.00;99.90
6724;DHT22;3399;52.530;13.304;2023-11-21T06:40:03;6.00;99.90
6724;DHT22;3399;52.530;13.304;2023-11-21T06:42:32;6.10;99.90
6724;DHT22;3399;52.530;13.304;2023-11-21T06:44:58;6.00;99.90
6724;DHT22;3399;52.530;13.304;2023-11-21T06:47:27;6.00;99.90
6724;DHT22;3399;52.530;13.304;2023-11-21T06:49:54;6.00;99.90
6724;DHT22;3399;52.530;13.304;2023-11-21T06:52:20;5.90;99.90
6724;DHT22;3399;52.530;13.304;2023-11-21T06:54:47;5.90;99.90
6724;DHT22;3399;52.530;13.304;2023-11-21T06:57:15;5.90;99.90
6724;DHT22;3399;52.530;13.304;2023-11-21T06:59:40;5.90;99.90
6724;DHT22;3399;52.530;13.304;2023-11-21T07:02:06;5.80;99.90
6724;DHT22;3399;52.530;13.304;2023-11-21T07:04:36;5.80;99.90
6724;DHT22;3399;52.530;13.304;2023-11-21T07:07:02;5.90;99.90
6724;DHT22;3399;52.530;13.304;2023-11-21T07:09:28;5.80;99.90
6724;DHT22;3399;52.530;13.304;2023-11-21T07:11:53;5.80;99.90
6724;DHT22;3399;52.530;13.304;2023-11-21T07:14:19;6.00;99.90
6724;DHT22;3399;52.530;13.304;2023-11-21T07:16:46;5.90;99.90
6724;DHT22;3399;52.530;13.304;2023-11-21T07:19:11;5.90;99.90
6724;DHT22;3399;52.530;13.304;2023-11-21T07:21:38;5.90;99.90
6724;DHT22;3399;52.530;13.304;2023-11-21T07:24:05;5.80;99.90
6724;DHT22;3399;52.530;13.304;2023-11-21T07:26:32;5.80;99.90
6724;DHT22;3399;52.530;13.304;2023-11-21T07:28:59;5.80;99.90
6724;DHT22;3399;52.530;13.304;2023-11-21T07:31:25;5.90;99.90
6724;DHT22;3399;52.530;13.304;2023-11-21T07:33:51;5.70;99.90
6724;DHT22;3399;52.530;13.304;2023-11-21T07:36:17;5.80;99.90
6724;DHT22;3399;52.530;13.304;2023-11-21T07:38:49;5.80;99.90
6724;DHT22;3399;52.530;13.304;2023-11-21T07:41:15;5.80;99.90
6724;DHT22;3399;52.530;13.304;2023-11-21T07:43:41;5.80;99.90
6724;DHT22;3399;52.530;13.304;2023-11-21T07:46:07;5.80;99.90
6724;DHT22;3399;52.530;13.304;2023-11-21T07:48:34;5.80;99.90
6724;DHT22;3399;52.530;13.304;2023-11-21T07:51:02;5.80;99.90
6724;DHT22;3399;52.530;13.304;2023-11-21T07:53:29;5.80;99.90
6724;DHT22;3399;52.530;13.304;2023-11-21T07:55:55;5.90;99.90
6724;DHT22;3399;52.530;13.304;2023-11-21T07:58:21;5.90;99.90
6724;DHT22;3399;52.530;13.304;2023-11-21T08:00:46;6.00;99.90
6724;DHT22;3399;52.530;13.304;2023-11-21T08:03:13;6.00;99.90
6724;DHT22;3399;52.530;13.304;2023-11-21T08:05:39;6.00;99.90
6724;DHT22;3399;52.530;13.304;2023-11-21T08:08:04;6.10;99.90
6724;DHT22;3399;52.530;13.304;2023-11-21T08:10:30;6.20;99.90
6724;DHT22;3399;52.530;13.304;2023-11-21T08:12:56;6.20;99.90
6724;DHT22;3399;52.530;13.304;2023-11-21T08:15:21;6.20;99.90
6724;DHT22;3399;52.530;13.304;2023-11-21T08:17:47;6.30;99.90
6724;DHT22;3399;52.530;13.304;2023-11-21T08:20:13;6.20;99.90
6724;DHT22;3399;52.530;13.304;2023-11-21T08:22:42;6.30;99.90
6724;DHT22;3399;52.530;13.304;2023-11-21T08:25:08;6.40;99.90
6724;DHT22;3399;52.530;13.304;2023-11-21T08:27:34;6.20;99.90
6724;DHT22;3399;52.530;13.304;2023-11-21T08:30:00;6.10;99.90
6724;DHT22;3399;52.530;13.304;2023-11-21T08:32:26;6.10;99.90
6724;DHT22;3399;52.530;13.304;2023-11-21T08:34:51;6.10;99.90
6724;DHT22;3399;52.530;13.304;2023-11-21T08:37:17;6.20;99.90
6724;DHT22;3399;52.530;13.304;2023-11-21T08:39:47;6.10;99.90
6724;DHT22;3399;52.530;13.304;2023-11-21T08:42:14;6.00;99.90
6724;DHT22;3399;52.530;13.304;2023-11-21T08:44:40;5.90;99.90
6724;DHT22;3399;52.530;13.304;2023-11-21T08:47:06;6.00;99.90
6724;DHT22;3399;52.530;13.304;2023-11-21T08:49:31;6.00;99.90
6724;DHT22;3399;52.530;13.304;2023-11-21T08:51:58;6.00;99.90
6724;DHT22;3399;52.530;13.304;2023-11-21T08:54:25;5.90;99.90
6724;DHT22;3399;52.530;13.304;2023-11-21T08:56:52;5.90;99.90
6724;DHT22;3399;52.530;13.304;2023-11-21T08:59:18;5.80;99.90
6724;DHT22;3399;52.530;13.304;2023-11-21T09:01:45;5.80;99.90
6724;DHT22;3399;52.530;13.304;2023-11-21T09:04:10;5.80;99.90
6724;DHT22;3399;52.530;13.304;2023-11-21T09:06:36;5.80;99.90
6724;DHT22;3399;52.530;13.304;2023-11-21T09:09:02;5.90;99.90
6724;DHT22;3399;52.530;13.304;2023-11-21T09:11:30;6.10;99.90
6724;DHT22;3399;52.530;13.304;2023-11-21T09:14:02;6.00;99.90
6724;DHT22;3399;52.530;13.304;2023-11-21T09:16:29;6.00;99.90
6724;DHT22;3399;52.530;13.304;2023-11-21T09:18:55;5.90;99.90
6724;DHT22;3399;52.530;13.304;2023-11-21T09:21:20;5.70;99.90
6724;DHT22;3399;52.530;13.304;2023-11-21T09:23:46;5.70;99.90
6724;DHT22;3399;52.530;13.304;2023-11-21T09:26:12;5.70;99.90
6724;DHT22;3399;52.530;13.304;2023-11-21T09:28:38;5.60;99.90
6724;DHT22;3399;52.530;13.304;2023-11-21T09:31:05;5.70;99.90
6724;DHT22;3399;52.530;13.304;2023-11-21T09:33:30;5.70;99.90
6724;DHT22;3399;52.530;13.304;2023-11-21T09:35:57;5.80;99.90
6724;DHT22;3399;52.530;13.304;2023-11-21T09:38:23;5.70;99.90
6724;DHT22;3399;52.530;13.304;2023-11-21T09:40:49;5.60;99.90
6724;DHT22;3399;52.530;13.304;2023-11-21T09:43:19;5.60;99.90
6724;DHT22;3399;52.530;13.304;2023-11-21T09:45:46;5.50;99.90
6724;DHT22;3399;52.530;13.304;2023-11-21T09:48:13;5.60;99.90
6724;DHT22;3399;52.530;13.304;2023-11-21T09:50:41;5.70;99.90
6724;DHT22;3399;52.530;13.304;2023-11-21T09:53:27;5.70;99.90
6724;DHT22;3399;52.530;13.304;2023-11-21T09:55:56;5.80;99.90
6724;DHT22;3399;52.530;13.304;2023-11-21T09:58:22;5.80;99.90
6724;DHT22;3399;52.530;13.304;2023-11-21T10:00:53;5.80;99.90
6724;DHT22;3399;52.530;13.304;2023-11-21T10:03:18;5.50;99.90
6724;DHT22;3399;52.530;13.304;2023-11-21T10:05:45;5.60;99.90
6724;DHT22;3399;52.530;13.304;2023-11-21T10:08:12;5.60;99.90
6724;DHT22;3399;52.530;13.304;2023-11-21T10:10:44;5.60;99.90
6724;DHT22;3399;52.530;13.304;2023-11-21T10:13:12;5.70;99.90
6724;DHT22;3399;52.530;13.304;2023-11-21T10:15:38;5.80;99.90
6724;DHT22;3399;52.530;13.304;2023-11-21T10:18:07;5.80;99.90
6724;DHT22;3399;52.530;13.304;2023-11-21T10:20:34;5.90;99.90
6724;DHT22;3399;52.530;13.304;2023-11-21T10:23:01;5.80;99.90
6724;DHT22;3399;52.530;13.304;2023-11-21T10:25:28;5.70;99.90
6724;DHT22;3399;52.530;13.304;2023-11-21T10:27:58;5.60;99.90
6724;DHT22;3399;52.530;13.304;2023-11-21T10:30:37;5.70;99.90
6724;DHT22;3399;52.530;13.304;2023-11-21T10:33:07;5.80;99.90
6724;DHT22;3399;52.530;13.304;2023-11-21T10:38:20;5.70;99.90
6724;DHT22;3399;52.530;13.304;2023-11-21T10:40:48;5.60;99.90
6724;DHT22;3399;52.530;13.304;2023-11-21T10:43:15;5.50;99.90
6724;DHT22;3399;52.530;13.304;2023-11-21T10:45:41;5.60;99.90
6724;DHT22;3399;52.530;13.304;2023-11-21T10:48:14;5.50;99.90
6724;DHT22;3399;52.530;13.304;2023-11-21T10:50:45;5.50;99.90
6724;DHT22;3399;52.530;13.304;2023-11-21T10:53:11;5.50;99.90
6724;DHT22;3399;52.530;13.304;2023-11-21T10:55:38;5.40;99.90
6724;DHT22;3399;52.530;13.304;2023-11-21T10:58:04;5.40;99.90
6724;DHT22;3399;52.530;13.304;2023-11-21T11:00:32;5.50;99.90
6724;DHT22;3399;52.530;13.304;2023-11-21T11:02:58;5.50;99.90
6724;DHT22;3399;52.530;13.304;2023-11-21T11:05:25;5.50;99.90
6724;DHT22;3399;52.530;13.304;2023-11-21T11:07:58;5.40;99.90
6724;DHT22;3399;52.530;13.304;2023-11-21T11:10:27;5.40;99.90
6724;DHT22;3399;52.530;13.304;2023-11-21T11:12:55;5.40;99.90
6724;DHT22;3399;52.530;13.304;2023-11-21T11:15:21;5.20;99.90
6724;DHT22;3399;52.530;13.304;2023-11-21T11:17:48;5.20;99.90
6724;DHT22;3399;52.530;13.304;2023-11-21T11:20:16;5.20;99.90
6724;DHT22;3399;52.530;13.304;2023-11-21T11:22:59;5.30;99.90
6724;DHT22;3399;52.530;13.304;2023-11-21T11:25:55;5.40;99.90
6724;DHT22;3399;52.530;13.304;2023-11-21T11:29:14;5.20;99.90
6724;DHT22;3399;52.530;13.304;2023-11-21T11:31:55;5.20;99.90
6724;DHT22;3399;52.530;13.304;2023-11-21T11:34:35;5.20;99.90
6724;DHT22;3399;52.530;13.304;2023-11-21T11:37:04;5.30;99.90
6724;DHT22;3399;52.530;13.304;2023-11-21T11:39:40;5.40;99.90
6724;DHT22;3399;52.530;13.304;2023-11-21T11:42:17;5.30;99.90
6724;DHT22;3399;52.530;13.304;2023-11-21T11:50:11;5.20;99.90
6724;DHT22;3399;52.530;13.304;2023-11-21T11:52:53;5.30;99.90
6724;DHT22;3399;52.530;13.304;2023-11-21T11:55:24;5.10;99.90
6724;DHT22;3399;52.530;13.304;2023-11-21T11:57:53;5.10;99.90
6724;DHT22;3399;52.530;13.304;2023-11-21T12:03:00;5.10;99.90
6724;DHT22;3399;52.530;13.304;2023-11-21T12:05:29;5.10;99.90
6724;DHT22;3399;52.530;13.304;2023-11-21T12:08:00;5.00;99.90
6724;DHT22;3399;52.530;13.304;2023-11-21T12:10:34;5.10;99.90
6724;DHT22;3399;52.530;13.304;2023-11-21T12:13:02;5.10;99.90
6724;DHT22;3399;52.530;13.304;2023-11-21T12:15:30;5.20;99.90
6724;DHT22;3399;52.530;13.304;2023-11-21T12:17:57;5.20;99.90
6724;DHT22;3399;52.530;13.304;2023-11-21T12:20:24;5.00;99.90
6724;DHT22;3399;52.530;13.304;2023-11-21T12:22:55;5.00;99.90
6724;DHT22;3399;52.530;13.304;2023-11-21T12:25:25;4.90;99.90
6724;DHT22;3399;52.530;13.304;2023-11-21T12:27:55;4.90;99.90
6724;DHT22;3399;52.530;13.304;2023-11-21T12:30:31;5.00;99.90
6724;DHT22;3399;52.530;13.304;2023-11-21T12:32:58;4.90;99.90
6724;DHT22;3399;52.530;13.304;2023-11-21T12:35:31;4.90;99.90
6724;DHT22;3399;52.530;13.304;2023-11-21T12:38:00;4.90;99.90
6724;DHT22;3399;52.530;13.304;2023-11-21T12:40:28;4.90;99.90
6724;DHT22;3399;52.530;13.304;2023-11-21T12:42:56;5.10;99.90
6724;DHT22;3399;52.530;13.304;2023-11-21T12:45:25;5.10;99.90
6724;DHT22;3399;52.530;13.304;2023-11-21T12:47:55;5.00;99.90
6724;DHT22;3399;52.530;13.304;2023-11-21T12:50:23;5.10;99.90
6724;DHT22;3399;52.530;13.304;2023-11-21T12:52:51;5.10;99.90
6724;DHT22;3399;52.530;13.304;2023-11-21T12:55:20;5.20;99.90
6724;DHT22;3399;52.530;13.304;2023-11-21T12:57:57;5.30;99.90
6724;DHT22;3399;52.530;13.304;2023-11-21T13:00:31;5.30;99.90
6724;DHT22;3399;52.530;13.304;2023-11-21T13:02:59;5.20;99.90
6724;DHT22;3399;52.530;13.304;2023-11-21T13:05:29;5.40;99.90
6724;DHT22;3399;52.530;13.304;2023-11-21T13:07:56;5.40;99.90
6724;DHT22;3399;52.530;13.304;2023-11-21T13:10:26;5.20;99.90
6724;DHT22;3399;52.530;13.304;2023-11-21T13:13:00;5.10;99.90
6724;DHT22;3399;52.530;13.304;2023-11-21T13:15:27;5.10;99.90
6724;DHT22;3399;52.530;13.304;2023-11-21T13:17:53;4.90;99.90
6724;DHT22;3399;52.530;13.304;2023-11-21T13:20:19;4.70;99.90
6724;DHT22;3399;52.530;13.304;2023-11-21T13:22:49;4.60;99.90
6724;DHT22;3399;52.530;13.304;2023-11-21T13:25:18;4.60;99.90
6724;DHT22;3399;52.530;13.304;2023-11-21T13:27:45;4.60;99.90
6724;DHT22;3399;52.530;13.304;2023-11-21T13:30:12;4.70;99.90
6724;DHT22;3399;52.530;13.304;2023-11-21T13:32:41;4.60;99.90
6724;DHT22;3399;52.530;13.304;2023-11-21T13:35:07;4.60;99.90
6724;DHT22;3399;52.530;13.304;2023-11-21T13:37:33;4.50;99.90
6724;DHT22;3399;52.530;13.304;2023-11-21T13:39:59;4.60;99.90
6724;DHT22;3399;52.530;13.304;2023-11-21T13:42:28;4.50;99.90
6724;DHT22;3399;52.530;13.304;2023-11-21T13:44:57;4.50;99.90
6724;DHT22;3399;52.530;13.304;2023-11-21T13:47:23;4.50;99.90
6724;DHT22;3399;52.530;13.304;2023-11-21T13:49:54;4.40;99.90
6724;DHT22;3399;52.530;13.304;2023-11-21T13:52:20;4.40;99.90
6724;DHT22;3399;52.530;13.304;2023-11-21T13:54:49;4.30;99.90
6724;DHT22;3399;52.530;13.304;2023-11-21T13:57:14;4.30;99.90
6724;DHT22;3399;52.530;13.304;2023-11-21T13:59:40;4.30;99.90
6724;DHT22;3399;52.530;13.304;2023-11-21T14:02:05;4.30;99.90
6724;DHT22;3399;52.530;13.304;2023-11-21T14:04:44;4.20;99.90
6724;DHT22;3399;52.530;13.304;2023-11-21T14:07:21;4.20;99.90
6724;DHT22;3399;52.530;13.304;2023-11-21T14:10:12;4.20;99.90
6724;DHT22;3399;52.530;13.304;2023-11-21T14:12:39;4.30;99.90
6724;DHT22;3399;52.530;13.304;2023-11-21T14:15:08;4.30;99.90
6724;DHT22;3399;52.530;13.304;2023-11-21T14:17:35;4.20;99.90
6724;DHT22;3399;52.530;13.304;2023-11-21T14:20:03;4.10;99.90
6724;DHT22;3399;52.530;13.304;2023-11-21T14:22:30;4.10;99.90
6724;DHT22;3399;52.530;13.304;2023-11-21T14:24:56;4.10;99.90
6724;DHT22;3399;52.530;13.304;2023-11-21T14:27:25;4.10;99.90
6724;DHT22;3399;52.530;13.304;2023-11-21T14:29:52;4.10;99.90
6724;DHT22;3399;52.530;13.304;2023-11-21T14:32:18;4.20;99.90
6724;DHT22;3399;52.530;13.304;2023-11-21T14:34:43;4.20;99.90
6724;DHT22;3399;52.530;13.304;2023-11-21T14:37:12;4.20;99.90
6724;DHT22;3399;52.530;13.304;2023-11-21T14:39:39;4.10;99.90
6724;DHT22;3399;52.530;13.304;2023-11-21T14:42:09;4.00;99.90
6724;DHT22;3399;52.530;13.304;2023-11-21T14:44:35;3.80;99.90
6724;DHT22;3399;52.530;13.304;2023-11-21T14:47:05;3.80;99.90
6724;DHT22;3399;52.530;13.304;2023-11-21T14:49:42;3.80;99.90
6724;DHT22;3399;52.530;13.304;2023-11-21T14:52:19;3.70;99.90
6724;DHT22;3399;52.530;13.304;2023-11-21T14:54:58;3.90;99.90
6724;DHT22;3399;52.530;13.304;2023-11-21T14:57:46;3.90;99.90
6724;DHT22;3399;52.530;13.304;2023-11-21T15:00:16;3.60;99.90
6724;DHT22;3399;52.530;13.304;2023-11-21T15:03:03;3.70;99.90
6724;DHT22;3399;52.530;13.304;2023-11-21T15:05:29;3.60;99.90
6724;DHT22;3399;52.530;13.304;2023-11-21T15:07:55;3.60;99.90
6724;DHT22;3399;52.530;13.304;2023-11-21T15:10:36;3.60;99.90
6724;DHT22;3399;52.530;13.304;2023-11-21T15:13:20;3.50;99.90
6724;DHT22;3399;52.530;13.304;2023-11-21T15:15:47;3.50;99.90
6724;DHT22;3399;52.530;13.304;2023-11-21T15:18:13;3.60;99.90
6724;DHT22;3399;52.530;13.304;2023-11-21T15:20:41;3.50;99.90
6724;DHT22;3399;52.530;13.304;2023-11-21T15:23:08;3.50;99.90
6724;DHT22;3399;52.530;13.304;2023-11-21T15:25:34;3.50;99.90
6724;DHT22;3399;52.530;13.304;2023-11-21T15:28:01;3.60;99.90
6724;DHT22;3399;52.530;13.304;2023-11-21T15:30:28;3.60;99.90
6724;DHT22;3399;52.530;13.304;2023-11-21T15:32:59;3.50;99.90
6724;DHT22;3399;52.530;13.304;2023-11-21T15:35:25;3.60;99.90
6724;DHT22;3399;52.530;13.304;2023-11-21T15:37:54;3.60;99.90
6724;DHT22;3399;52.530;13.304;2023-11-21T15:40:23;3.70;99.90
6724;DHT22;3399;52.530;13.304;2023-11-21T15:42:48;3.70;99.90
6724;DHT22;3399;52.530;13.304;2023-11-21T15:45:15;4.00;99.90
6724;DHT22;3399;52.530;13.304;2023-11-21T15:47:44;4.00;99.90
6724;DHT22;3399;52.530;13.304;2023-11-21T15:50:09;4.00;99.90
6724;DHT22;3399;52.530;13.304;2023-11-21T15:52:36;3.90;99.90
6724;DHT22;3399;52.530;13.304;2023-11-21T15:55:02;3.90;99.90
6724;DHT22;3399;52.530;13.304;2023-11-21T15:57:28;3.80;99.90
6724;DHT22;3399;52.530;13.304;2023-11-21T15:59:54;3.60;99.90
6724;DHT22;3399;52.530;13.304;2023-11-21T16:02:19;3.60;99.90
6724;DHT22;3399;52.530;13.304;2023-11-21T16:04:44;3.60;99.90
6724;DHT22;3399;52.530;13.304;2023-11-21T16:07:10;3.60;99.90
6724;DHT22;3399;52.530;13.304;2023-11-21T16:09:36;3.50;99.90
6724;DHT22;3399;52.530;13.304;2023-11-21T16:12:05;3.50;99.90
6724;DHT22;3399;52.530;13.304;2023-11-21T16:14:35;3.60;99.90